sensor_id;sensor_type;location;lat;lon;timestamp;P1;durP1;ratioP1;P2;durP2;ratioP2
69789;SDS011;57064;52.046;4.800;2023-12-14T00:01:27;28.60;;;10.52;;
69789;SDS011;57064;52.046;4.800;2023-12-14T00:03:53;33.45;;;12.20;;
69789;SDS011;57064;52.046;4.800;2023-12-14T00:06:19;30.05;;;13.38;;
69789;SDS011;57064;52.046;4.800;2023-12-14T00:08:45;28.45;;;11.63;;
69789;SDS011;57064;52.046;4.800;2023-12-14T00:11:11;27.67;;;10.10;;
69789;SDS011;57064;52.046;4.800;2023-12-14T00:13:38;26.60;;;11.05;;
69789;SDS011;57064;52.046;4.800;2023-12-14T00:16:05;22.88;;;10.63;;
69789;SDS011;57064;52.046;4.800;2023-12-14T00:18:31;32.30;;;12.55;;
69789;SDS011;57064;52.046;4.800;2023-12-14T00:20:57;23.35;;;10.85;;
69789;SDS011;57064;52.046;4.800;2023-12-14T00:23:23;29.70;;;10.10;;
69789;SDS011;57064;52.046;4.800;2023-12-14T00:25:49;27.10;;;10.68;;
69789;SDS011;57064;52.046;4.800;2023-12-14T00:28:16;26.42;;;9.65;;
69789;SDS011;57064;52.046;4.800;2023-12-14T00:30:43;21.77;;;9.30;;
69789;SDS011;57064;52.046;4.800;2023-12-14T00:33:09;22.23;;;9.85;;
69789;SDS011;57064;52.046;4.800;2023-12-14T00:35:35;25.70;;;10.60;;
69789;SDS011;57064;52.046;4.800;2023-12-14T00:38:01;24.98;;;9.82;;
69789;SDS011;57064;52.046;4.800;2023-12-14T00:40:27;27.38;;;9.65;;
69789;SDS011;57064;52.046;4.800;2023-12-14T00:42:53;22.13;;;9.60;;
69789;SDS011;57064;52.046;4.800;2023-12-14T00:45:19;23.30;;;9.40;;
69789;SDS011;57064;52.046;4.800;2023-12-14T00:47:45;16.80;;;7.57;;
69789;SDS011;57064;52.046;4.800;2023-12-14T00:50:11;20.42;;;8.90;;
69789;SDS011;57064;52.046;4.800;2023-12-14T00:52:37;21.88;;;9.00;;
69789;SDS011;57064;52.046;4.800;2023-12-14T00:55:05;22.55;;;9.43;;
69789;SDS011;57064;52.046;4.800;2023-12-14T00:57:31;20.67;;;8.23;;
69789;SDS011;57064;52.046;4.800;2023-12-14T00:59:57;22.40;;;9.38;;
69789;SDS011;57064;52.046;4.800;2023-12-14T01:02:23;21.92;;;8.70;;
69789;SDS011;57064;52.046;4.800;2023-12-14T01:04:49;18.83;;;8.60;;
69789;SDS011;57064;52.046;4.800;2023-12-14T01:07:15;21.55;;;9.57;;
69789;SDS011;57064;52.046;4.800;2023-12-14T01:09:41;21.95;;;10.05;;
69789;SDS011;57064;52.046;4.800;2023-12-14T01:12:07;20.25;;;8.50;;
69789;SDS011;57064;52.046;4.800;2023-12-14T01:14:33;20.83;;;10.00;;
69789;SDS011;57064;52.046;4.800;2023-12-14T01:16:59;22.45;;;8.93;;
69789;SDS011;57064;52.046;4.800;2023-12-14T01:19:25;21.58;;;8.98;;
69789;SDS011;57064;52.046;4.800;2023-12-14T01:21:52;23.50;;;8.90;;
69789;SDS011;57064;52.046;4.800;2023-12-14T01:24:18;22.90;;;8.25;;
69789;SDS011;57064;52.046;4.800;2023-12-14T01:26:44;28.00;;;10.13;;
69789;SDS011;57064;52.046;4.800;2023-12-14T01:29:10;21.80;;;8.48;;
69789;SDS011;57064;52.046;4.800;2023-12-14T01:31:36;23.20;;;8.38;;
69789;SDS011;57064;52.046;4.800;2023-12-14T01:34:02;26.35;;;9.82;;
69789;SDS011;57064;52.046;4.800;2023-12-14T01:36:28;21.77;;;8.38;;
69789;SDS011;57064;52.046;4.800;2023-12-14T01:38:54;23.33;;;9.30;;
69789;SDS011;57064;52.046;4.800;2023-12-14T01:41:20;21.42;;;8.85;;
69789;SDS011;57064;52.046;4.800;2023-12-14T01:43:46;20.88;;;8.43;;
69789;SDS011;57064;52.046;4.800;2023-12-14T01:46:12;28.73;;;10.93;;
69789;SDS011;57064;52.046;4.800;2023-12-14T01:48:40;22.23;;;8.45;;
69789;SDS011;57064;52.046;4.800;2023-12-14T01:51:06;24.00;;;9.55;;
69789;SDS011;57064;52.046;4.800;2023-12-14T01:53:33;22.50;;;9.60;;
69789;SDS011;57064;52.046;4.800;2023-12-14T01:55:59;23.02;;;9.57;;
69789;SDS011;57064;52.046;4.800;2023-12-14T01:58:25;16.85;;;9.20;;
69789;SDS011;57064;52.046;4.800;2023-12-14T02:01:00;22.38;;;8.75;;
69789;SDS011;57064;52.046;4.800;2023-12-14T02:03:29;22.90;;;10.00;;
69789;SDS011;57064;52.046;4.800;2023-12-14T02:05:55;23.42;;;9.88;;
69789;SDS011;57064;52.046;4.800;2023-12-14T02:08:22;24.20;;;10.38;;
69789;SDS011;57064;52.046;4.800;2023-12-14T02:10:49;25.80;;;9.13;;
69789;SDS011;57064;52.046;4.800;2023-12-14T02:13:15;24.50;;;10.30;;
69789;SDS011;57064;52.046;4.800;2023-12-14T02:15:41;24.42;;;11.38;;
69789;SDS011;57064;52.046;4.800;2023-12-14T02:18:07;24.13;;;10.65;;
69789;SDS011;57064;52.046;4.800;2023-12-14T02:20:33;26.27;;;10.60;;
69789;SDS011;57064;52.046;4.800;2023-12-14T02:23:00;24.25;;;11.18;;
69789;SDS011;57064;52.046;4.800;2023-12-14T02:25:26;26.50;;;10.23;;
69789;SDS011;57064;52.046;4.800;2023-12-14T02:27:52;22.20;;;9.07;;
69789;SDS011;57064;52.046;4.800;2023-12-14T02:30:19;23.42;;;9.45;;
69789;SDS011;57064;52.046;4.800;2023-12-14T02:32:45;26.00;;;10.77;;
69789;SDS011;57064;52.046;4.800;2023-12-14T02:35:11;22.30;;;10.40;;
69789;SDS011;57064;52.046;4.800;2023-12-14T02:37:37;27.67;;;11.05;;
69789;SDS011;57064;52.046;4.800;2023-12-14T02:40:05;21.15;;;9.95;;
69789;SDS011;57064;52.046;4.800;2023-12-14T02:42:33;21.83;;;8.68;;
69789;SDS011;57064;52.046;4.800;2023-12-14T02:45:00;25.58;;;9.15;;
69789;SDS011;57064;52.046;4.800;2023-12-14T02:47:27;22.30;;;9.95;;
69789;SDS011;57064;52.046;4.800;2023-12-14T02:49:54;23.90;;;9.82;;
69789;SDS011;57064;52.046;4.800;2023-12-14T02:52:20;20.75;;;9.95;;
69789;SDS011;57064;52.046;4.800;2023-12-14T02:54:46;22.27;;;10.65;;
69789;SDS011;57064;52.046;4.800;2023-12-14T02:57:13;21.85;;;10.27;;
69789;SDS011;57064;52.046;4.800;2023-12-14T02:59:39;23.98;;;9.65;;
69789;SDS011;57064;52.046;4.800;2023-12-14T03:02:05;22.48;;;10.57;;
69789;SDS011;57064;52.046;4.800;2023-12-14T03:04:31;23.33;;;10.05;;
69789;SDS011;57064;52.046;4.800;2023-12-14T03:06:57;27.10;;;9.80;;
69789;SDS011;57064;52.046;4.800;2023-12-14T03:09:27;25.73;;;10.05;;
69789;SDS011;57064;52.046;4.800;2023-12-14T03:11:53;28.88;;;10.30;;
69789;SDS011;57064;52.046;4.800;2023-12-14T03:14:20;24.05;;;10.48;;
69789;SDS011;57064;52.046;4.800;2023-12-14T03:16:46;33.13;;;11.73;;
69789;SDS011;57064;52.046;4.800;2023-12-14T03:19:13;30.02;;;11.27;;
69789;SDS011;57064;52.046;4.800;2023-12-14T03:21:40;25.60;;;10.63;;
69789;SDS011;57064;52.046;4.800;2023-12-14T03:24:07;23.23;;;9.65;;
69789;SDS011;57064;52.046;4.800;2023-12-14T03:26:34;29.15;;;10.32;;
69789;SDS011;57064;52.046;4.800;2023-12-14T03:29:00;26.00;;;10.10;;
69789;SDS011;57064;52.046;4.800;2023-12-14T03:31:26;19.25;;;8.18;;
69789;SDS011;57064;52.046;4.800;2023-12-14T03:33:52;30.35;;;9.73;;
69789;SDS011;57064;52.046;4.800;2023-12-14T03:36:19;18.27;;;7.57;;
69789;SDS011;57064;52.046;4.800;2023-12-14T03:38:46;22.80;;;9.30;;
69789;SDS011;57064;52.046;4.800;2023-12-14T03:41:12;21.35;;;9.25;;
69789;SDS011;57064;52.046;4.800;2023-12-14T03:43:38;22.92;;;8.82;;
69789;SDS011;57064;52.046;4.800;2023-12-14T03:46:04;19.27;;;7.90;;
69789;SDS011;57064;52.046;4.800;2023-12-14T03:48:31;17.85;;;7.60;;
69789;SDS011;57064;52.046;4.800;2023-12-14T03:50:57;20.88;;;8.82;;
69789;SDS011;57064;52.046;4.800;2023-12-14T03:53:26;20.88;;;8.10;;
69789;SDS011;57064;52.046;4.800;2023-12-14T03:55:52;19.83;;;7.82;;
69789;SDS011;57064;52.046;4.800;2023-12-14T03:58:19;19.08;;;7.50;;
69789;SDS011;57064;52.046;4.800;2023-12-14T04:00:45;20.40;;;8.23;;
69789;SDS011;57064;52.046;4.800;2023-12-14T04:03:11;22.33;;;8.88;;
69789;SDS011;57064;52.046;4.800;2023-12-14T04:05:37;16.95;;;7.53;;
69789;SDS011;57064;52.046;4.800;2023-12-14T04:08:04;21.75;;;8.15;;
69789;SDS011;57064;52.046;4.800;2023-12-14T04:10:30;14.90;;;7.25;;
69789;SDS011;57064;52.046;4.800;2023-12-14T04:12:56;16.42;;;7.47;;
69789;SDS011;57064;52.046;4.800;2023-12-14T04:15:23;18.27;;;7.38;;
69789;SDS011;57064;52.046;4.800;2023-12-14T04:17:49;15.88;;;7.28;;
69789;SDS011;57064;52.046;4.800;2023-12-14T04:20:15;21.23;;;8.60;;
69789;SDS011;57064;52.046;4.800;2023-12-14T04:22:41;19.10;;;7.20;;
69789;SDS011;57064;52.046;4.800;2023-12-14T04:25:08;18.88;;;8.98;;
69789;SDS011;57064;52.046;4.800;2023-12-14T04:27:34;22.20;;;7.55;;
69789;SDS011;57064;52.046;4.800;2023-12-14T04:30:00;21.90;;;7.88;;
69789;SDS011;57064;52.046;4.800;2023-12-14T04:32:26;15.32;;;7.00;;
69789;SDS011;57064;52.046;4.800;2023-12-14T04:34:52;19.65;;;7.68;;
69789;SDS011;57064;52.046;4.800;2023-12-14T04:37:18;18.77;;;7.32;;
69789;SDS011;57064;52.046;4.800;2023-12-14T04:39:44;12.40;;;6.10;;
69789;SDS011;57064;52.046;4.800;2023-12-14T04:42:10;14.02;;;6.20;;
69789;SDS011;57064;52.046;4.800;2023-12-14T04:44:36;13.70;;;7.03;;
69789;SDS011;57064;52.046;4.800;2023-12-14T04:47:03;15.43;;;6.20;;
69789;SDS011;57064;52.046;4.800;2023-12-14T04:49:30;12.45;;;6.18;;
69789;SDS011;57064;52.046;4.800;2023-12-14T04:51:56;14.05;;;7.00;;
69789;SDS011;57064;52.046;4.800;2023-12-14T04:54:22;17.27;;;6.13;;
69789;SDS011;57064;52.046;4.800;2023-12-14T04:56:48;16.48;;;5.68;;
69789;SDS011;57064;52.046;4.800;2023-12-14T04:59:14;15.75;;;7.07;;
69789;SDS011;57064;52.046;4.800;2023-12-14T05:01:40;12.75;;;5.70;;
69789;SDS011;57064;52.046;4.800;2023-12-14T05:04:06;17.67;;;6.13;;
69789;SDS011;57064;52.046;4.800;2023-12-14T05:06:32;11.45;;;5.85;;
69789;SDS011;57064;52.046;4.800;2023-12-14T05:08:59;16.80;;;5.53;;
69789;SDS011;57064;52.046;4.800;2023-12-14T05:11:28;14.10;;;5.35;;
69789;SDS011;57064;52.046;4.800;2023-12-14T05:13:54;12.82;;;5.40;;
69789;SDS011;57064;52.046;4.800;2023-12-14T05:16:21;18.65;;;5.53;;
69789;SDS011;57064;52.046;4.800;2023-12-14T05:18:51;10.63;;;4.90;;
69789;SDS011;57064;52.046;4.800;2023-12-14T05:21:20;12.73;;;5.75;;
69789;SDS011;57064;52.046;4.800;2023-12-14T05:23:46;10.68;;;5.25;;
69789;SDS011;57064;52.046;4.800;2023-12-14T05:26:12;13.57;;;5.95;;
69789;SDS011;57064;52.046;4.800;2023-12-14T05:28:38;13.82;;;6.07;;
69789;SDS011;57064;52.046;4.800;2023-12-14T05:31:04;12.60;;;6.22;;
69789;SDS011;57064;52.046;4.800;2023-12-14T05:33:30;15.07;;;6.07;;
69789;SDS011;57064;52.046;4.800;2023-12-14T05:35:58;14.77;;;6.85;;
69789;SDS011;57064;52.046;4.800;2023-12-14T05:38:24;15.15;;;6.18;;
69789;SDS011;57064;52.046;4.800;2023-12-14T05:40:50;14.27;;;6.57;;
69789;SDS011;57064;52.046;4.800;2023-12-14T05:43:16;14.18;;;6.28;;
69789;SDS011;57064;52.046;4.800;2023-12-14T05:45:42;11.15;;;4.75;;
69789;SDS011;57064;52.046;4.800;2023-12-14T05:48:08;13.38;;;6.20;;
69789;SDS011;57064;52.046;4.800;2023-12-14T05:50:34;9.13;;;4.82;;
69789;SDS011;57064;52.046;4.800;2023-12-14T05:53:00;13.15;;;5.80;;
69789;SDS011;57064;52.046;4.800;2023-12-14T05:55:26;15.57;;;4.82;;
69789;SDS011;57064;52.046;4.800;2023-12-14T05:57:52;10.98;;;5.00;;
69789;SDS011;57064;52.046;4.800;2023-12-14T06:00:20;11.98;;;5.65;;
69789;SDS011;57064;52.046;4.800;2023-12-14T06:02:46;11.27;;;4.68;;
69789;SDS011;57064;52.046;4.800;2023-12-14T06:05:12;12.27;;;5.38;;
69789;SDS011;57064;52.046;4.800;2023-12-14T06:07:38;10.27;;;4.38;;
69789;SDS011;57064;52.046;4.800;2023-12-14T06:10:04;9.80;;;4.93;;
69789;SDS011;57064;52.046;4.800;2023-12-14T06:12:32;12.25;;;6.03;;
69789;SDS011;57064;52.046;4.800;2023-12-14T06:14:58;11.30;;;4.88;;
69789;SDS011;57064;52.046;4.800;2023-12-14T06:17:24;13.30;;;5.80;;
69789;SDS011;57064;52.046;4.800;2023-12-14T06:19:50;12.57;;;5.32;;
69789;SDS011;57064;52.046;4.800;2023-12-14T06:22:16;13.05;;;5.97;;
69789;SDS011;57064;52.046;4.800;2023-12-14T06:24:42;12.52;;;5.25;;
69789;SDS011;57064;52.046;4.800;2023-12-14T06:27:08;10.50;;;5.10;;
69789;SDS011;57064;52.046;4.800;2023-12-14T06:29:34;11.95;;;5.45;;
69789;SDS011;57064;52.046;4.800;2023-12-14T06:32:00;10.40;;;5.40;;
69789;SDS011;57064;52.046;4.800;2023-12-14T06:34:27;12.82;;;5.45;;
69789;SDS011;57064;52.046;4.800;2023-12-14T06:36:53;11.93;;;5.35;;
69789;SDS011;57064;52.046;4.800;2023-12-14T06:39:19;13.40;;;5.68;;
69789;SDS011;57064;52.046;4.800;2023-12-14T06:41:45;13.30;;;6.82;;
69789;SDS011;57064;52.046;4.800;2023-12-14T06:44:12;11.48;;;5.70;;
69789;SDS011;57064;52.046;4.800;2023-12-14T06:46:38;11.20;;;5.22;;
69789;SDS011;57064;52.046;4.800;2023-12-14T06:49:04;13.15;;;6.40;;
69789;SDS011;57064;52.046;4.800;2023-12-14T06:51:30;14.48;;;7.53;;
69789;SDS011;57064;52.046;4.800;2023-12-14T06:53:56;16.02;;;6.35;;
69789;SDS011;57064;52.046;4.800;2023-12-14T06:56:22;13.10;;;5.88;;
69789;SDS011;57064;52.046;4.800;2023-12-14T06:58:48;8.63;;;4.65;;
69789;SDS011;57064;52.046;4.800;2023-12-14T07:01:15;12.57;;;5.10;;
69789;SDS011;57064;52.046;4.800;2023-12-14T07:03:45;9.63;;;5.20;;
69789;SDS011;57064;52.046;4.800;2023-12-14T07:06:14;10.55;;;5.18;;
69789;SDS011;57064;52.046;4.800;2023-12-14T07:08:41;10.80;;;5.32;;
69789;SDS011;57064;52.046;4.800;2023-12-14T07:11:08;13.00;;;5.60;;
69789;SDS011;57064;52.046;4.800;2023-12-14T07:13:36;11.93;;;5.38;;
69789;SDS011;57064;52.046;4.800;2023-12-14T07:16:06;12.15;;;5.53;;
69789;SDS011;57064;52.046;4.800;2023-12-14T07:18:34;11.88;;;6.30;;
69789;SDS011;57064;52.046;4.800;2023-12-14T07:21:01;13.07;;;6.70;;
69789;SDS011;57064;52.046;4.800;2023-12-14T07:23:28;14.02;;;6.20;;
69789;SDS011;57064;52.046;4.800;2023-12-14T07:25:54;13.68;;;6.53;;
69789;SDS011;57064;52.046;4.800;2023-12-14T07:28:21;13.25;;;6.80;;
69789;SDS011;57064;52.046;4.800;2023-12-14T07:30:47;11.50;;;5.85;;
69789;SDS011;57064;52.046;4.800;2023-12-14T07:33:14;12.52;;;6.10;;
69789;SDS011;57064;52.046;4.800;2023-12-14T07:35:41;15.77;;;6.80;;
69789;SDS011;57064;52.046;4.800;2023-12-14T07:38:09;15.05;;;6.15;;
69789;SDS011;57064;52.046;4.800;2023-12-14T07:40:35;12.93;;;6.30;;
69789;SDS011;57064;52.046;4.800;2023-12-14T07:43:03;15.23;;;6.75;;
69789;SDS011;57064;52.046;4.800;2023-12-14T07:45:29;13.80;;;7.05;;
69789;SDS011;57064;52.046;4.800;2023-12-14T07:47:55;13.60;;;6.35;;
69789;SDS011;57064;52.046;4.800;2023-12-14T07:50:22;12.32;;;6.65;;
69789;SDS011;57064;52.046;4.800;2023-12-14T07:52:48;13.48;;;6.30;;
69789;SDS011;57064;52.046;4.800;2023-12-14T07:55:14;13.82;;;7.07;;
69789;SDS011;57064;52.046;4.800;2023-12-14T07:57:40;14.10;;;6.97;;
69789;SDS011;57064;52.046;4.800;2023-12-14T08:00:07;13.48;;;7.30;;
69789;SDS011;57064;52.046;4.800;2023-12-14T08:02:35;15.27;;;7.07;;
69789;SDS011;57064;52.046;4.800;2023-12-14T08:05:01;13.80;;;7.00;;
69789;SDS011;57064;52.046;4.800;2023-12-14T08:07:28;16.25;;;6.90;;
69789;SDS011;57064;52.046;4.800;2023-12-14T08:09:55;15.43;;;7.80;;
69789;SDS011;57064;52.046;4.800;2023-12-14T08:12:22;14.88;;;7.45;;
69789;SDS011;57064;52.046;4.800;2023-12-14T08:14:49;22.40;;;9.70;;
69789;SDS011;57064;52.046;4.800;2023-12-14T08:17:15;15.63;;;8.13;;
69789;SDS011;57064;52.046;4.800;2023-12-14T08:19:42;21.88;;;8.80;;
69789;SDS011;57064;52.046;4.800;2023-12-14T08:22:09;19.63;;;7.60;;
69789;SDS011;57064;52.046;4.800;2023-12-14T08:24:37;18.95;;;7.63;;
69789;SDS011;57064;52.046;4.800;2023-12-14T08:27:04;13.07;;;6.90;;
69789;SDS011;57064;52.046;4.800;2023-12-14T08:29:30;14.57;;;6.95;;
69789;SDS011;57064;52.046;4.800;2023-12-14T08:31:56;14.02;;;6.32;;
69789;SDS011;57064;52.046;4.800;2023-12-14T08:34:24;10.95;;;6.00;;
69789;SDS011;57064;52.046;4.800;2023-12-14T08:36:51;14.02;;;7.47;;
69789;SDS011;57064;52.046;4.800;2023-12-14T08:39:17;13.48;;;6.40;;
69789;SDS011;57064;52.046;4.800;2023-12-14T08:41:45;16.52;;;7.28;;
69789;SDS011;57064;52.046;4.800;2023-12-14T08:44:12;13.57;;;6.65;;
69789;SDS011;57064;52.046;4.800;2023-12-14T08:46:42;10.65;;;5.38;;
69789;SDS011;57064;52.046;4.800;2023-12-14T08:49:11;14.27;;;5.57;;
69789;SDS011;57064;52.046;4.800;2023-12-14T08:51:38;13.60;;;5.88;;
69789;SDS011;57064;52.046;4.800;2023-12-14T08:54:04;13.40;;;5.75;;
69789;SDS011;57064;52.046;4.800;2023-12-14T08:56:31;22.02;;;6.90;;
69789;SDS011;57064;52.046;4.800;2023-12-14T08:58:57;15.27;;;6.93;;
69789;SDS011;57064;52.046;4.800;2023-12-14T09:01:24;11.98;;;5.90;;
69789;SDS011;57064;52.046;4.800;2023-12-14T09:03:50;14.88;;;7.28;;
69789;SDS011;57064;52.046;4.800;2023-12-14T09:06:17;9.93;;;5.65;;
69789;SDS011;57064;52.046;4.800;2023-12-14T09:08:46;11.63;;;6.15;;
69789;SDS011;57064;52.046;4.800;2023-12-14T09:11:12;13.88;;;6.25;;
69789;SDS011;57064;52.046;4.800;2023-12-14T09:13:40;11.15;;;6.00;;
69789;SDS011;57064;52.046;4.800;2023-12-14T09:16:07;11.52;;;5.18;;
69789;SDS011;57064;52.046;4.800;2023-12-14T09:18:33;11.75;;;5.55;;
69789;SDS011;57064;52.046;4.800;2023-12-14T09:20:59;10.52;;;5.22;;
69789;SDS011;57064;52.046;4.800;2023-12-14T09:23:25;10.65;;;5.60;;
69789;SDS011;57064;52.046;4.800;2023-12-14T09:25:53;11.85;;;6.00;;
69789;SDS011;57064;52.046;4.800;2023-12-14T09:28:21;8.93;;;5.47;;
69789;SDS011;57064;52.046;4.800;2023-12-14T09:30:47;13.25;;;6.18;;
69789;SDS011;57064;52.046;4.800;2023-12-14T09:33:13;11.30;;;6.05;;
69789;SDS011;57064;52.046;4.800;2023-12-14T09:35:39;10.70;;;5.32;;
69789;SDS011;57064;52.046;4.800;2023-12-14T09:38:06;11.32;;;5.35;;
69789;SDS011;57064;52.046;4.800;2023-12-14T09:40:33;11.55;;;5.63;;
69789;SDS011;57064;52.046;4.800;2023-12-14T09:43:00;11.75;;;5.53;;
69789;SDS011;57064;52.046;4.800;2023-12-14T09:45:29;10.68;;;5.70;;
69789;SDS011;57064;52.046;4.800;2023-12-14T09:47:56;11.48;;;5.25;;
69789;SDS011;57064;52.046;4.800;2023-12-14T09:50:23;10.45;;;5.15;;
69789;SDS011;57064;52.046;4.800;2023-12-14T09:52:50;10.35;;;5.22;;
69789;SDS011;57064;52.046;4.800;2023-12-14T09:55:16;10.02;;;5.25;;
69789;SDS011;57064;52.046;4.800;2023-12-14T09:57:42;9.50;;;5.10;;
69789;SDS011;57064;52.046;4.800;2023-12-14T10:00:09;23.33;;;6.28;;
69789;SDS011;57064;52.046;4.800;2023-12-14T10:02:36;8.75;;;5.05;;
69789;SDS011;57064;52.046;4.800;2023-12-14T10:05:02;10.20;;;5.80;;
69789;SDS011;57064;52.046;4.800;2023-12-14T10:07:30;11.77;;;5.90;;
69789;SDS011;57064;52.046;4.800;2023-12-14T10:10:09;10.88;;;5.35;;
69789;SDS011;57064;52.046;4.800;2023-12-14T10:12:54;9.82;;;5.20;;
69789;SDS011;57064;52.046;4.800;2023-12-14T10:15:20;12.63;;;6.25;;
69789;SDS011;57064;52.046;4.800;2023-12-14T10:17:50;11.00;;;4.65;;
69789;SDS011;57064;52.046;4.800;2023-12-14T10:20:21;10.13;;;5.28;;
69789;SDS011;57064;52.046;4.800;2023-12-14T10:22:48;13.02;;;5.60;;
69789;SDS011;57064;52.046;4.800;2023-12-14T10:25:35;8.00;;;4.85;;
69789;SDS011;57064;52.046;4.800;2023-12-14T10:28:01;12.25;;;4.80;;
69789;SDS011;57064;52.046;4.800;2023-12-14T10:30:28;10.20;;;4.90;;
69789;SDS011;57064;52.046;4.800;2023-12-14T10:32:55;12.85;;;6.55;;
69789;SDS011;57064;52.046;4.800;2023-12-14T10:35:22;12.32;;;5.75;;
69789;SDS011;57064;52.046;4.800;2023-12-14T10:37:49;11.60;;;5.15;;
69789;SDS011;57064;52.046;4.800;2023-12-14T10:40:17;11.75;;;5.47;;
69789;SDS011;57064;52.046;4.800;2023-12-14T10:42:44;10.68;;;5.13;;
69789;SDS011;57064;52.046;4.800;2023-12-14T10:45:13;11.23;;;5.03;;
69789;SDS011;57064;52.046;4.800;2023-12-14T10:47:45;11.20;;;5.50;;
69789;SDS011;57064;52.046;4.800;2023-12-14T10:50:14;11.15;;;5.40;;
69789;SDS011;57064;52.046;4.800;2023-12-14T10:52:40;11.25;;;5.10;;
69789;SDS011;57064;52.046;4.800;2023-12-14T10:55:08;10.40;;;5.03;;
69789;SDS011;57064;52.046;4.800;2023-12-14T10:57:42;10.18;;;5.05;;
69789;SDS011;57064;52.046;4.800;2023-12-14T11:00:10;11.10;;;5.10;;
69789;SDS011;57064;52.046;4.800;2023-12-14T11:02:39;9.27;;;5.47;;
69789;SDS011;57064;52.046;4.800;2023-12-14T11:05:08;8.82;;;4.80;;
69789;SDS011;57064;52.046;4.800;2023-12-14T11:07:50;10.35;;;5.45;;
69789;SDS011;57064;52.046;4.800;2023-12-14T11:10:26;11.65;;;5.45;;
69789;SDS011;57064;52.046;4.800;2023-12-14T11:12:57;8.38;;;4.55;;
69789;SDS011;57064;52.046;4.800;2023-12-14T11:15:30;8.02;;;4.65;;
69789;SDS011;57064;52.046;4.800;2023-12-14T11:23:12;10.10;;;4.65;;
69789;SDS011;57064;52.046;4.800;2023-12-14T11:25:39;9.95;;;5.13;;
69789;SDS011;57064;52.046;4.800;2023-12-14T11:28:06;11.15;;;5.47;;
69789;SDS011;57064;52.046;4.800;2023-12-14T11:30:35;8.90;;;5.22;;
69789;SDS011;57064;52.046;4.800;2023-12-14T11:33:02;11.20;;;5.75;;
69789;SDS011;57064;52.046;4.800;2023-12-14T11:35:28;10.75;;;4.88;;
69789;SDS011;57064;52.046;4.800;2023-12-14T11:37:55;9.07;;;4.82;;
69789;SDS011;57064;52.046;4.800;2023-12-14T11:40:24;8.23;;;4.90;;
69789;SDS011;57064;52.046;4.800;2023-12-14T11:43:00;11.80;;;4.60;;
69789;SDS011;57064;52.046;4.800;2023-12-14T11:45:32;11.02;;;4.85;;
69789;SDS011;57064;52.046;4.800;2023-12-14T11:47:58;13.15;;;5.03;;
69789;SDS011;57064;52.046;4.800;2023-12-14T11:50:24;8.27;;;3.72;;
69789;SDS011;57064;52.046;4.800;2023-12-14T11:52:52;8.45;;;4.03;;
69789;SDS011;57064;52.046;4.800;2023-12-14T11:55:21;7.43;;;4.13;;
69789;SDS011;57064;52.046;4.800;2023-12-14T11:57:47;9.45;;;4.45;;
69789;SDS011;57064;52.046;4.800;2023-12-14T12:00:15;8.02;;;4.50;;
69789;SDS011;57064;52.046;4.800;2023-12-14T12:02:41;10.05;;;4.38;;
69789;SDS011;57064;52.046;4.800;2023-12-14T12:05:07;6.28;;;3.38;;
69789;SDS011;57064;52.046;4.800;2023-12-14T12:07:38;8.18;;;3.85;;
69789;SDS011;57064;52.046;4.800;2023-12-14T12:10:08;7.38;;;4.25;;
69789;SDS011;57064;52.046;4.800;2023-12-14T12:12:36;8.98;;;4.40;;
69789;SDS011;57064;52.046;4.800;2023-12-14T12:15:03;8.88;;;4.38;;
69789;SDS011;57064;52.046;4.800;2023-12-14T12:17:29;7.90;;;4.00;;
69789;SDS011;57064;52.046;4.800;2023-12-14T12:20:02;7.18;;;4.43;;
69789;SDS011;57064;52.046;4.800;2023-12-14T12:22:31;7.90;;;3.60;;
69789;SDS011;57064;52.046;4.800;2023-12-14T12:24:57;9.27;;;3.80;;
69789;SDS011;57064;52.046;4.800;2023-12-14T12:27:25;11.80;;;5.05;;
69789;SDS011;57064;52.046;4.800;2023-12-14T12:29:52;10.40;;;4.97;;
69789;SDS011;57064;52.046;4.800;2023-12-14T12:32:19;10.23;;;5.40;;
69789;SDS011;57064;52.046;4.800;2023-12-14T12:34:45;12.68;;;5.53;;
69789;SDS011;57064;52.046;4.800;2023-12-14T12:37:11;13.38;;;6.20;;
69789;SDS011;57064;52.046;4.800;2023-12-14T12:39:37;10.68;;;5.93;;
69789;SDS011;57064;52.046;4.800;2023-12-14T12:42:04;13.27;;;5.78;;
69789;SDS011;57064;52.046;4.800;2023-12-14T12:44:30;9.98;;;5.18;;
69789;SDS011;57064;52.046;4.800;2023-12-14T12:46:56;11.40;;;5.97;;
69789;SDS011;57064;52.046;4.800;2023-12-14T12:49:23;13.50;;;5.55;;
69789;SDS011;57064;52.046;4.800;2023-12-14T12:51:49;9.60;;;5.15;;
69789;SDS011;57064;52.046;4.800;2023-12-14T12:54:15;8.68;;;4.70;;
69789;SDS011;57064;52.046;4.800;2023-12-14T12:56:42;10.23;;;5.30;;
69789;SDS011;57064;52.046;4.800;2023-12-14T12:59:08;12.95;;;6.00;;
69789;SDS011;57064;52.046;4.800;2023-12-14T13:01:34;10.65;;;5.22;;
69789;SDS011;57064;52.046;4.800;2023-12-14T13:04:00;11.52;;;5.90;;
69789;SDS011;57064;52.046;4.800;2023-12-14T13:06:29;14.48;;;5.97;;
69789;SDS011;57064;52.046;4.800;2023-12-14T13:08:55;10.95;;;5.03;;
69789;SDS011;57064;52.046;4.800;2023-12-14T13:11:21;12.82;;;5.40;;
69789;SDS011;57064;52.046;4.800;2023-12-14T13:13:47;12.18;;;5.60;;
69789;SDS011;57064;52.046;4.800;2023-12-14T13:16:13;9.13;;;4.82;;
69789;SDS011;57064;52.046;4.800;2023-12-14T13:18:41;13.00;;;5.97;;
69789;SDS011;57064;52.046;4.800;2023-12-14T13:21:08;13.40;;;7.10;;
69789;SDS011;57064;52.046;4.800;2023-12-14T13:23:34;14.77;;;7.63;;
69789;SDS011;57064;52.046;4.800;2023-12-14T13:26:00;13.48;;;7.13;;
69789;SDS011;57064;52.046;4.800;2023-12-14T13:28:26;13.38;;;6.20;;
69789;SDS011;57064;52.046;4.800;2023-12-14T13:30:52;15.80;;;6.78;;
69789;SDS011;57064;52.046;4.800;2023-12-14T13:33:19;13.95;;;6.65;;
69789;SDS011;57064;52.046;4.800;2023-12-14T13:35:45;13.50;;;6.38;;
69789;SDS011;57064;52.046;4.800;2023-12-14T13:38:12;14.48;;;7.10;;
69789;SDS011;57064;52.046;4.800;2023-12-14T13:40:38;12.90;;;6.38;;
69789;SDS011;57064;52.046;4.800;2023-12-14T13:43:04;11.88;;;6.38;;
69789;SDS011;57064;52.046;4.800;2023-12-14T13:45:35;13.15;;;5.43;;
69789;SDS011;57064;52.046;4.800;2023-12-14T13:48:03;12.93;;;6.72;;
69789;SDS011;57064;52.046;4.800;2023-12-14T13:50:29;17.70;;;7.05;;
69789;SDS011;57064;52.046;4.800;2023-12-14T13:52:55;12.90;;;6.57;;
69789;SDS011;57064;52.046;4.800;2023-12-14T13:55:22;16.45;;;7.25;;
69789;SDS011;57064;52.046;4.800;2023-12-14T13:57:48;15.23;;;6.78;;
69789;SDS011;57064;52.046;4.800;2023-12-14T14:00:15;11.98;;;6.88;;
69789;SDS011;57064;52.046;4.800;2023-12-14T14:02:41;14.32;;;7.05;;
69789;SDS011;57064;52.046;4.800;2023-12-14T14:05:07;14.30;;;7.70;;
69789;SDS011;57064;52.046;4.800;2023-12-14T14:07:33;20.20;;;9.23;;
69789;SDS011;57064;52.046;4.800;2023-12-14T14:09:59;17.85;;;7.93;;
69789;SDS011;57064;52.046;4.800;2023-12-14T14:12:26;15.05;;;7.15;;
69789;SDS011;57064;52.046;4.800;2023-12-14T14:14:52;17.50;;;7.63;;
69789;SDS011;57064;52.046;4.800;2023-12-14T14:17:18;16.63;;;7.10;;
69789;SDS011;57064;52.046;4.800;2023-12-14T14:19:44;12.98;;;6.38;;
69789;SDS011;57064;52.046;4.800;2023-12-14T14:22:10;15.88;;;6.65;;
69789;SDS011;57064;52.046;4.800;2023-12-14T14:24:36;13.90;;;6.82;;
69789;SDS011;57064;52.046;4.800;2023-12-14T14:27:04;12.80;;;7.03;;
69789;SDS011;57064;52.046;4.800;2023-12-14T14:29:31;15.93;;;7.20;;
69789;SDS011;57064;52.046;4.800;2023-12-14T14:31:57;16.30;;;7.28;;
69789;SDS011;57064;52.046;4.800;2023-12-14T14:34:23;16.23;;;7.00;;
69789;SDS011;57064;52.046;4.800;2023-12-14T14:36:50;14.88;;;6.88;;